Terminal Aerodrome Forecast
Issued by NWS Flagstaff, AZ

Home | Current Version | Previous Version | Text Only | Print | Product List | Glossary On
Versions: 1 2 3 4 5 6 7 8 9 10 11 12 13
234
FTUS45 KFGZ 282340
TAFINW
TAF
KINW 282340Z 2900/2924 VRB10G20KT P6SM VCSH FEW120
     FM290100 VRB05KT P6SM FEW120=

USA.gov is the U.S. government's official web portal to all federal, state and local government web resources and services.